Search for airport 
image banner adimage banner adimage banner ad
image banner ad

75PA - Marther Field

Located in Albion, United States

ICAO - 75PA, IATA -

Data provided by Airmate  

General information

Coordinates: N41°52'23" W80°27'32"
Elevation is 950 feet MSL.
Magnetic variation is -08° East
View others Airports in Pennsylvania

Operational data

Special qualification required
Current time UTC:
Current local time:
Weather at : KHZY - Northeast Ohio Rgnl ( 22 km )
METAR: KHZY 071253Z AUTO 02004KT 10SM -RA OVC024 06/04 A2994 RMK AO2 SLP142 P0000 T00560039
View NOTAMs / SUP AIP / TFR affecting this airport [VIEW]
Communications frequencies: [VIEW]

Runways:

RWY identifierQFULength (ft)Width (ft)SurfaceLDA (ft)
102100100GRASS
282100100GRASS

Airport contact information

Address: Albion United States

Satellite view of 75PA